Time;durP1;ratioP1;P1;durP2;ratioP2;P2;SDS_P1;SDS_P2;PMS_P1;PMS_P2;Temp;Humidity;BMP_temperature;BMP_pressure;BME280_temperature;BME280_humidity;BME280_pressure;Samples;Min_cycle;Max_cycle;Signal;HPM_P1;HPM_P2
2021/12/16 00:33:44;;;;;;;18.00;8.00;;;;;;;1.97;100.00;101039.88;31303832;28;20044;-79
2021/12/16 01:34:53;;;;;;;15.20;6.77;;;;;;;1.86;100.00;101076.28;31281922;28;20046;-79
2021/12/16 01:50:01;;;;;;;13.63;6.80;;;;;;;1.93;100.00;101081.84;31298986;28;20066;-79
2021/12/16 02:35:47;;;;;;;17.43;6.63;;;;;;;1.62;100.00;101093.13;31289606;28;20045;-81
2021/12/16 02:50:51;;;;;;;18.03;7.30;;;;;;;1.59;100.00;101093.78;31290970;28;20053;-80
2021/12/16 03:05:53;;;;;;;13.83;6.87;;;;;;;1.58;100.00;101109.06;31282607;28;20053;-81
2021/12/16 03:21:03;;;;;;;19.73;8.70;;;;;;;1.45;100.00;101104.78;31282573;28;20056;-79
2021/12/16 03:51:34;;;;;;;14.57;7.00;;;;;;;1.27;100.00;101063.28;31300690;28;20057;-80
2021/12/16 04:06:41;;;;;;;10.80;6.87;;;;;;;1.32;100.00;101057.75;31296567;28;20075;-81
2021/12/16 04:22:15;;;;;;;12.53;6.07;;;;;;;1.34;100.00;101050.16;31328353;28;20140;-80
2021/12/16 04:37:17;;;;;;;16.30;6.77;;;;;;;1.42;100.00;101051.94;31308740;28;20516;-79
2021/12/16 04:52:19;;;;;;;19.17;6.93;;;;;;;1.46;100.00;101062.75;31301232;28;20718;-81
2021/12/16 05:07:22;;;;;;;15.80;6.83;;;;;;;1.44;100.00;101073.78;31286991;28;20041;-80
2021/12/16 05:37:45;;;;;;;14.20;6.37;;;;;;;1.37;100.00;101116.38;31287576;28;20135;-80
2021/12/16 05:52:47;;;;;;;15.13;6.67;;;;;;;1.40;100.00;101113.06;31295677;28;20081;-80
2021/12/16 06:07:50;;;;;;;12.47;6.27;;;;;;;1.50;100.00;101139.38;31315930;28;20044;-79
2021/12/16 06:38:12;;;;;;;18.57;7.77;;;;;;;1.48;100.00;101130.88;31356717;28;20472;-81
2021/12/16 06:53:24;;;;;;;20.80;8.73;;;;;;;1.52;100.00;101131.78;31313583;28;20164;-79
2021/12/16 07:08:26;;;;;;;21.87;7.87;;;;;;;1.66;100.00;101153.66;31348201;28;20455;-79
2021/12/16 07:23:29;;;;;;;17.47;7.73;;;;;;;1.56;100.00;101143.41;31299476;28;20056;-84
2021/12/16 07:38:31;;;;;;;19.10;8.70;;;;;;;1.57;100.00;101134.25;31295213;28;20048;-83
2021/12/16 08:09:52;;;;;;;20.13;8.47;;;;;;;1.63;100.00;101127.59;31400885;28;20060;-83
2021/12/16 08:24:54;;;;;;;21.67;8.70;;;;;;;1.73;100.00;101138.97;31309694;28;20048;-82
2021/12/16 08:40:47;;;;;;;19.90;7.73;;;;;;;1.81;100.00;101138.09;31394027;28;20057;-84
2021/12/16 08:56:54;;;;;;;15.67;7.73;;;;;;;1.65;100.00;101101.25;31340313;28;20061;-82
2021/12/16 09:12:35;;;;;;;21.80;8.87;;;;;;;1.67;100.00;101099.00;31348617;28;20459;-84
2021/12/16 09:27:21;;;;;;;21.67;9.47;;;;;;;1.69;100.00;101088.75;31368898;28;20132;-83
2021/12/16 09:42:26;;;;;;;20.00;8.97;;;;;;;1.74;100.00;101078.94;31290328;28;20076;-83
2021/12/16 09:57:29;;;;;;;20.10;8.90;;;;;;;1.58;100.00;101055.53;31349726;28;20135;-83
2021/12/16 10:12:36;;;;;;;17.90;7.23;;;;;;;1.50;100.00;101037.69;31278934;28;20106;-83
2021/12/16 10:28:01;;;;;;;24.33;9.40;;;;;;;1.44;100.00;101022.94;31398167;28;20049;-83
2021/12/16 10:43:14;;;;;;;21.07;8.57;;;;;;;1.32;100.00;101015.72;31367136;28;20192;-83
2021/12/16 10:58:19;;;;;;;22.50;8.43;;;;;;;1.34;100.00;100988.63;31281800;28;20141;-84
2021/12/16 11:13:30;;;;;;;20.93;8.10;;;;;;;1.28;100.00;100965.88;31296927;28;20057;-83
2021/12/16 11:28:44;;;;;;;26.50;9.33;;;;;;;1.17;100.00;100943.38;31297851;28;20056;-83
2021/12/16 11:43:56;;;;;;;25.53;9.83;;;;;;;1.21;100.00;100952.28;31304984;28;20064;-85
2021/12/16 11:58:57;;;;;;;19.57;7.90;;;;;;;1.26;100.00;100942.13;31313627;28;20136;-83
2021/12/16 12:14:09;;;;;;;21.20;7.73;;;;;;;1.14;100.00;100944.03;31387267;28;20088;-83
2021/12/16 12:29:15;;;;;;;22.83;8.97;;;;;;;1.11;100.00;100942.03;31348477;28;20083;-83
2021/12/16 12:44:19;;;;;;;22.87;8.30;;;;;;;1.34;100.00;100949.28;31291850;28;20100;-83
2021/12/16 12:59:33;;;;;;;21.10;8.60;;;;;;;1.37;100.00;100939.81;31359015;28;20087;-84
2021/12/16 13:14:43;;;;;;;34.60;11.10;;;;;;;1.36;100.00;100946.28;31344590;28;20132;-83
2021/12/16 13:45:25;;;;;;;25.97;10.90;;;;;;;1.14;100.00;100936.03;31374021;28;20084;-83
2021/12/16 14:46:14;;;;;;;33.03;11.93;;;;;;;1.08;100.00;100907.94;31326887;28;20145;-87
2021/12/16 15:01:23;;;;;;;36.17;12.97;;;;;;;1.04;100.00;100902.47;31293921;28;20239;-83
2021/12/16 15:46:51;;;;;;;34.53;12.43;;;;;;;0.90;100.00;100896.69;31327338;28;20060;-84
2021/12/16 16:01:54;;;;;;;34.13;12.50;;;;;;;0.79;100.00;100896.34;31352388;28;20052;-82
2021/12/16 16:16:58;;;;;;;37.93;11.57;;;;;;;0.71;100.00;100867.81;31365949;28;20046;-83
2021/12/16 16:32:01;;;;;;;28.63;10.93;;;;;;;0.82;100.00;100847.56;31369938;28;20056;-84
2021/12/16 16:47:28;;;;;;;41.13;14.77;;;;;;;0.75;100.00;100831.28;31348670;28;20053;-83
2021/12/16 17:02:43;;;;;;;31.07;9.80;;;;;;;0.58;100.00;100823.50;31344913;28;20091;-83
2021/12/16 17:17:45;;;;;;;17.60;7.07;;;;;;;0.56;100.00;100805.13;31345770;28;20083;-83
2021/12/16 17:32:49;;;;;;;22.80;8.57;;;;;;;0.51;100.00;100789.31;31363607;28;20143;-84
2021/12/16 17:47:51;;;;;;;29.97;9.40;;;;;;;0.52;100.00;100774.84;31356521;28;20502;-83
2021/12/16 18:02:53;;;;;;;40.57;10.23;;;;;;;0.47;100.00;100760.94;31371139;28;20052;-82
2021/12/16 18:18:02;;;;;;;57.47;16.07;;;;;;;0.33;100.00;100750.56;31302279;28;20424;-84
2021/12/16 18:33:22;;;;;;;65.57;16.47;;;;;;;0.31;100.00;100750.91;31313398;28;20072;-89
2021/12/16 18:48:40;;;;;;;38.70;11.07;;;;;;;0.03;100.00;100741.97;31338251;28;20418;-84
2021/12/16 19:03:44;;;;;;;26.07;9.23;;;;;;;-0.11;100.00;100741.50;31292704;28;20566;-89
2021/12/16 19:18:50;;;;;;;21.80;7.57;;;;;;;-0.09;100.00;100732.06;31299077;28;20049;-84
2021/12/16 19:34:09;;;;;;;15.13;5.73;;;;;;;-0.01;100.00;100725.88;31308385;28;20092;-85
2021/12/16 19:49:15;;;;;;;12.60;5.13;;;;;;;-0.13;100.00;100717.03;31353219;28;20530;-82
2021/12/16 20:04:23;;;;;;;10.97;5.17;;;;;;;-0.07;100.00;100718.38;31308236;28;20057;-83
2021/12/16 20:19:32;;;;;;;12.43;5.40;;;;;;;-0.05;100.00;100708.16;31334270;28;20063;-85
2021/12/16 20:34:39;;;;;;;9.07;4.43;;;;;;;-0.17;100.00;100700.13;31355353;28;20057;-84
2021/12/16 20:49:43;;;;;;;11.17;4.00;;;;;;;-0.17;100.00;100694.78;31385047;28;20055;-85
2021/12/16 21:04:48;;;;;;;5.80;3.13;;;;;;;-0.19;100.00;100689.00;31390515;28;20059;-85
2021/12/16 21:19:52;;;;;;;9.70;3.70;;;;;;;-0.18;100.00;100661.19;31406775;28;20731;-86
2021/12/16 21:35:00;;;;;;;9.37;4.03;;;;;;;-0.25;100.00;100628.97;31368205;28;20404;-85
2021/12/16 21:50:06;;;;;;;10.47;5.50;;;;;;;-0.35;100.00;100609.63;31378629;28;20056;-83
2021/12/16 22:05:11;;;;;;;14.27;6.80;;;;;;;-0.14;100.00;100598.06;31319419;28;20128;-82
2021/12/16 22:20:18;;;;;;;22.87;9.30;;;;;;;-0.13;100.00;100594.28;31359688;28;20304;-85
2021/12/16 22:35:23;;;;;;;20.40;8.73;;;;;;;-0.21;100.00;100576.47;31333893;28;20132;-84
2021/12/16 22:50:25;;;;;;;25.73;10.10;;;;;;;-0.22;100.00;100551.69;31315178;28;20148;-85
2021/12/16 23:05:27;;;;;;;22.57;9.67;;;;;;;-0.50;100.00;100530.25;31296966;28;20050;-84
2021/12/16 23:35:50;;;;;;;23.57;9.93;;;;;;;-0.38;100.00;100508.91;31299866;28;20059;-85
